createdAt,value
2022-08-07T00:00:13.360Z,96.58
2022-08-07T00:00:45.117Z,97.09
2022-08-07T00:01:44.704Z,97.66
2022-08-07T00:02:36.786Z,98.02
2022-08-07T00:03:02.762Z,97.23
2022-08-07T00:03:36.597Z,96.86
2022-08-07T00:04:09.535Z,97.17
2022-08-07T00:04:45.329Z,97.00
2022-08-07T00:05:17.068Z,97.15
2022-08-07T00:05:49.148Z,96.63
2022-08-07T00:06:21.051Z,97.11
2022-08-07T00:07:05.309Z,96.27
2022-08-07T00:07:41.737Z,96.55
2022-08-07T00:08:14.461Z,96.62
2022-08-07T00:08:46.211Z,96.42
2022-08-07T00:09:21.328Z,96.38
2022-08-07T00:10:04.923Z,96.66
2022-08-07T00:10:48.367Z,96.84
2022-08-07T00:11:33.240Z,96.73
2022-08-07T00:12:05.225Z,96.65
2022-08-07T00:12:57.951Z,96.40
2022-08-07T00:13:28.582Z,96.73
2022-08-07T00:14:01.184Z,96.31
2022-08-07T00:14:33.388Z,96.67
2022-08-07T00:15:06.067Z,96.83
2022-08-07T00:15:46.711Z,96.68
2022-08-07T00:16:27.944Z,96.84
2022-08-07T00:17:01.953Z,97.26
2022-08-07T00:17:35.827Z,97.19
2022-08-07T00:18:09.360Z,97.70
2022-08-07T00:18:51.349Z,98.02
2022-08-07T00:19:25.957Z,97.30
2022-08-07T00:20:03.265Z,97.48
2022-08-07T00:20:39.199Z,97.69
2022-08-07T00:21:57.126Z,97.82
2022-08-07T00:22:03.434Z,97.02
2022-08-07T00:22:35.766Z,97.13
2022-08-07T00:23:08.028Z,97.05
2022-08-07T00:23:40.928Z,97.77
2022-08-07T00:24:12.525Z,97.59
2022-08-07T00:24:44.334Z,98.09
2022-08-07T00:25:17.244Z,97.85
2022-08-07T00:25:52.431Z,98.14
2022-08-07T00:26:49.574Z,98.26
2022-08-07T00:27:22.637Z,97.95
2022-08-07T00:27:56.689Z,97.57
2022-08-07T00:28:33.245Z,97.73
2022-08-07T00:29:06.076Z,98.44
2022-08-07T00:29:37.666Z,98.50
2022-08-07T00:30:27.670Z,98.95
2022-08-07T00:31:00.840Z,98.09
2022-08-07T00:31:37.815Z,97.93
2022-08-07T00:32:13.939Z,98.64
2022-08-07T00:32:48.378Z,98.52
2022-08-07T00:33:20.382Z,98.42
2022-08-07T00:33:51.950Z,98.11
2022-08-07T00:34:23.472Z,98.44
2022-08-07T00:34:56.777Z,98.14
2022-08-07T00:35:30.322Z,98.21
2022-08-07T00:36:03.657Z,98.39
2022-08-07T00:36:35.255Z,98.41
2022-08-07T00:37:07.151Z,98.81
2022-08-07T00:37:48.185Z,98.57
2022-08-07T00:38:20.343Z,98.27
2022-08-07T00:39:03.745Z,98.60
2022-08-07T00:39:35.794Z,98.30
2022-08-07T00:40:07.657Z,98.23
2022-08-07T00:40:45.572Z,98.38
2022-08-07T00:41:25.957Z,98.73
2022-08-07T00:42:02.517Z,98.52
2022-08-07T00:42:37.065Z,98.97
2022-08-07T00:43:58.680Z,98.69
2022-08-07T00:44:03.860Z,98.92
2022-08-07T00:44:35.747Z,98.56
2022-08-07T00:45:16.343Z,98.86
2022-08-07T00:45:48.979Z,98.16
2022-08-07T00:46:22.712Z,98.29
2022-08-07T00:46:55.400Z,97.88
2022-08-07T00:48:09.129Z,98.83
2022-08-07T00:48:19.490Z,98.81
2022-08-07T00:48:56.746Z,99.28
2022-08-07T00:50:21.452Z,99.39
2022-08-07T00:50:46.672Z,99.50
2022-08-07T00:51:17.036Z,100.00
2022-08-07T00:51:57.766Z,99.73
2022-08-07T00:52:33.192Z,100.00
2022-08-07T00:53:05.224Z,100.00
2022-08-07T00:53:50.750Z,100.00
2022-08-07T00:54:26.909Z,100.00
2022-08-07T00:54:58.585Z,100.00
2022-08-07T00:56:00.698Z,100.00
2022-08-07T00:56:34.013Z,100.00
2022-08-07T00:57:07.070Z,100.00
2022-08-07T00:57:55.070Z,100.00
2022-08-07T00:58:27.725Z,100.00
2022-08-07T00:59:00.270Z,100.00
2022-08-07T00:59:35.204Z,100.00
2022-08-07T01:00:08.529Z,100.00
2022-08-07T01:00:53.745Z,100.00
2022-08-07T01:01:26.274Z,100.00
2022-08-07T01:01:59.141Z,100.00
2022-08-07T01:02:30.995Z,100.00
2022-08-07T01:03:03.296Z,100.00
2022-08-07T01:03:56.735Z,100.00
2022-08-07T01:04:26.747Z,100.00
2022-08-07T01:05:06.741Z,100.00
2022-08-07T01:05:53.730Z,100.00
2022-08-07T01:06:25.893Z,100.00
2022-08-07T01:06:57.703Z,100.00
2022-08-07T01:07:30.959Z,100.00
2022-08-07T01:08:03.152Z,100.00
2022-08-07T01:08:34.722Z,100.00
2022-08-07T01:09:06.316Z,100.00
2022-08-07T01:10:07.011Z,100.00
2022-08-07T01:10:32.168Z,100.00
2022-08-07T01:12:04.462Z,100.00
2022-08-07T01:12:09.778Z,100.00
2022-08-07T01:12:53.858Z,100.00
2022-08-07T01:13:35.202Z,100.00
2022-08-07T01:14:08.190Z,100.00
2022-08-07T01:14:40.604Z,100.00
2022-08-07T01:15:17.106Z,100.00
2022-08-07T01:16:05.183Z,100.00
2022-08-07T01:16:37.793Z,100.00
2022-08-07T01:17:09.877Z,100.00
2022-08-07T01:17:41.537Z,100.00
2022-08-07T01:18:16.818Z,100.00
2022-08-07T01:18:50.071Z,100.00
2022-08-07T01:19:23.555Z,100.00
2022-08-07T01:20:03.708Z,100.00
2022-08-07T01:20:43.240Z,100.00
2022-08-07T01:21:22.521Z,100.00
2022-08-07T01:21:55.641Z,100.00
2022-08-07T01:22:33.596Z,100.00
2022-08-07T01:23:12.788Z,100.00
2022-08-07T01:23:46.623Z,100.00
2022-08-07T01:24:21.345Z,100.00
2022-08-07T01:24:54.586Z,100.00
2022-08-07T01:25:40.477Z,100.00
2022-08-07T01:26:21.772Z,100.00
2022-08-07T01:26:54.162Z,100.00
2022-08-07T01:27:32.348Z,100.00
2022-08-07T01:28:05.604Z,100.00
2022-08-07T01:28:37.636Z,100.00
2022-08-07T01:29:09.297Z,100.00
2022-08-07T01:29:41.724Z,100.00
2022-08-07T01:30:13.664Z,100.00
2022-08-07T01:30:52.218Z,100.00
2022-08-07T01:31:41.805Z,100.00
2022-08-07T01:32:16.777Z,100.00
2022-08-07T01:32:51.746Z,100.00
2022-08-07T01:33:24.803Z,100.00
2022-08-07T01:34:02.867Z,100.00
2022-08-07T01:34:39.391Z,100.00
2022-08-07T01:35:17.306Z,100.00
2022-08-07T01:35:53.398Z,100.00
2022-08-07T01:36:33.494Z,100.00
2022-08-07T01:37:09.715Z,100.00
2022-08-07T01:37:41.961Z,100.00
2022-08-07T01:38:14.588Z,100.00
2022-08-07T01:38:57.876Z,100.00
2022-08-07T01:39:40.535Z,100.00
2022-08-07T01:40:26.183Z,100.00
2022-08-07T01:41:05.677Z,100.00
2022-08-07T01:41:40.921Z,100.00
2022-08-07T01:42:39.794Z,100.00
2022-08-07T01:43:34.578Z,100.00
2022-08-07T01:44:11.692Z,100.00
2022-08-07T01:44:47.942Z,99.77
2022-08-07T01:45:22.867Z,99.94
2022-08-07T01:46:02.413Z,99.86
2022-08-07T01:46:34.758Z,99.54
2022-08-07T01:47:14.493Z,100.00
2022-08-07T01:48:18.091Z,99.78
2022-08-07T01:48:51.629Z,100.00
2022-08-07T01:49:26.458Z,99.73
2022-08-07T01:49:58.365Z,100.00
2022-08-07T01:50:36.744Z,99.87
2022-08-07T01:52:00.964Z,99.86
2022-08-07T01:52:04.876Z,100.00
2022-08-07T01:52:39.434Z,100.00
2022-08-07T01:54:08.830Z,100.00
2022-08-07T01:54:32.786Z,100.00
2022-08-07T01:55:09.889Z,100.00
2022-08-07T01:56:01.650Z,100.00
2022-08-07T01:56:41.820Z,100.00
2022-08-07T01:57:34.087Z,100.00
2022-08-07T01:58:27.490Z,100.00
2022-08-07T01:59:07.763Z,100.00
2022-08-07T01:59:54.541Z,100.00
2022-08-07T02:00:29.158Z,100.00
2022-08-07T02:01:59.300Z,100.00
2022-08-07T02:02:11.783Z,100.00
2022-08-07T02:03:12.138Z,100.00
2022-08-07T02:04:12.107Z,100.00
2022-08-07T02:04:57.265Z,100.00
2022-08-07T02:05:47.824Z,100.00
2022-08-07T02:06:31.344Z,100.00
2022-08-07T02:07:07.809Z,100.00
2022-08-07T02:08:09.896Z,100.00
2022-08-07T02:08:46.837Z,100.00
2022-08-07T02:09:33.824Z,100.00
2022-08-07T02:10:24.049Z,100.00
2022-08-07T02:10:59.213Z,100.00
2022-08-07T02:12:03.015Z,100.00
2022-08-07T02:12:29.318Z,100.00
2022-08-07T02:13:04.876Z,100.00
2022-08-07T02:13:56.684Z,100.00
2022-08-07T02:14:40.226Z,100.00
2022-08-07T02:15:14.298Z,100.00
2022-08-07T02:15:49.612Z,100.00
2022-08-07T02:16:33.436Z,100.00
2022-08-07T02:17:06.207Z,100.00
2022-08-07T02:17:40.419Z,100.00
2022-08-07T02:18:12.819Z,100.00
2022-08-07T02:18:46.811Z,100.00
2022-08-07T02:20:04.937Z,100.00
2022-08-07T02:20:19.918Z,100.00
2022-08-07T02:20:58.156Z,100.00
2022-08-07T02:21:56.569Z,100.00
2022-08-07T02:22:25.811Z,100.00
2022-08-07T02:23:03.676Z,100.00
2022-08-07T02:23:38.627Z,100.00
2022-08-07T02:24:11.090Z,100.00
2022-08-07T02:24:50.697Z,100.00
2022-08-07T02:26:10.405Z,100.00
2022-08-07T02:26:33.037Z,100.00
2022-08-07T02:27:11.148Z,100.00
2022-08-07T02:27:52.301Z,100.00
2022-08-07T02:28:29.560Z,100.00
2022-08-07T02:29:07.752Z,100.00
2022-08-07T02:29:53.967Z,100.00
2022-08-07T02:30:27.272Z,100.00
2022-08-07T02:31:19.109Z,100.00
2022-08-07T02:31:54.718Z,100.00
2022-08-07T02:32:30.065Z,100.00
2022-08-07T02:33:08.968Z,100.00
2022-08-07T02:34:03.598Z,100.00
2022-08-07T02:34:34.639Z,100.00
2022-08-07T02:35:09.329Z,100.00
2022-08-07T02:36:29.619Z,100.00
2022-08-07T02:36:37.144Z,100.00
2022-08-07T02:37:15.677Z,100.00
2022-08-07T02:37:48.064Z,100.00
2022-08-07T02:38:28.112Z,100.00
2022-08-07T02:39:16.043Z,100.00
2022-08-07T02:40:02.299Z,100.00
2022-08-07T02:40:51.529Z,100.00
2022-08-07T02:41:33.516Z,100.00
2022-08-07T02:42:14.696Z,100.00
2022-08-07T02:42:49.589Z,100.00
2022-08-07T02:43:23.494Z,100.00
2022-08-07T02:43:57.665Z,100.00
2022-08-07T02:44:34.732Z,100.00
2022-08-07T02:45:58.593Z,100.00
2022-08-07T02:46:05.124Z,100.00
2022-08-07T02:46:46.763Z,100.00
2022-08-07T02:47:24.796Z,100.00
2022-08-07T02:48:04.439Z,100.00
2022-08-07T02:48:54.644Z,100.00
2022-08-07T02:49:55.604Z,100.00
2022-08-07T02:50:18.587Z,100.00
2022-08-07T02:50:53.091Z,100.00
2022-08-07T02:51:42.084Z,100.00
2022-08-07T02:52:30.999Z,100.00
2022-08-07T02:53:10.863Z,100.00
2022-08-07T02:53:44.088Z,100.00
2022-08-07T02:54:19.965Z,100.00
2022-08-07T02:54:52.213Z,100.00
2022-08-07T02:56:02.961Z,100.00
2022-08-07T02:56:23.073Z,100.00
2022-08-07T02:57:01.835Z,100.00
2022-08-07T02:57:36.795Z,100.00
2022-08-07T02:58:12.057Z,100.00
2022-08-07T02:58:47.333Z,100.00
2022-08-07T02:59:27.565Z,100.00
2022-08-07T03:00:05.203Z,100.00
2022-08-07T03:00:46.725Z,100.00
2022-08-07T03:01:35.570Z,100.00
2022-08-07T03:02:10.795Z,100.00
2022-08-07T03:02:54.301Z,100.00
2022-08-07T03:03:42.070Z,100.00
2022-08-07T03:04:23.550Z,100.00
2022-08-07T03:04:56.633Z,100.00
2022-08-07T03:05:35.902Z,100.00
2022-08-07T03:06:16.603Z,100.00
2022-08-07T03:06:57.883Z,100.00
2022-08-07T03:08:05.122Z,100.00
2022-08-07T03:08:29.287Z,100.00
2022-08-07T03:09:05.515Z,100.00
2022-08-07T03:09:43.569Z,100.00
2022-08-07T03:10:18.076Z,100.00
2022-08-07T03:10:57.595Z,100.00
2022-08-07T03:11:38.638Z,100.00
2022-08-07T03:12:22.562Z,100.00
2022-08-07T03:13:04.826Z,100.00
2022-08-07T03:13:49.874Z,100.00
2022-08-07T03:14:24.236Z,100.00
2022-08-07T03:14:57.489Z,100.00
2022-08-07T03:15:55.905Z,100.00
2022-08-07T03:16:27.948Z,100.00
2022-08-07T03:17:01.105Z,100.00
2022-08-07T03:17:53.311Z,100.00
2022-08-07T03:18:34.944Z,100.00
2022-08-07T03:19:09.935Z,100.00
2022-08-07T03:19:42.036Z,100.00
2022-08-07T03:20:15.986Z,100.00
2022-08-07T03:20:47.985Z,100.00
2022-08-07T03:21:19.769Z,100.00
2022-08-07T03:21:52.537Z,100.00
2022-08-07T03:22:29.523Z,100.00
2022-08-07T03:23:02.840Z,100.00
2022-08-07T03:24:19.991Z,100.00
2022-08-07T03:24:31.015Z,100.00
2022-08-07T03:25:06.486Z,100.00
2022-08-07T03:25:58.298Z,100.00
2022-08-07T03:26:33.233Z,100.00
2022-08-07T03:27:09.955Z,100.00
2022-08-07T03:27:59.400Z,100.00
2022-08-07T03:28:40.848Z,100.00
2022-08-07T03:29:14.771Z,100.00
2022-08-07T03:29:51.673Z,100.00
2022-08-07T03:30:27.980Z,100.00
2022-08-07T03:31:18.452Z,100.00
2022-08-07T03:31:51.585Z,100.00
2022-08-07T03:32:29.648Z,100.00
2022-08-07T03:33:02.405Z,100.00
2022-08-07T03:33:40.165Z,100.00
2022-08-07T03:34:18.478Z,100.00
2022-08-07T03:35:17.161Z,100.00
2022-08-07T03:35:50.826Z,100.00
2022-08-07T03:36:25.881Z,100.00
2022-08-07T03:37:00.281Z,100.00
2022-08-07T03:37:54.186Z,100.00
2022-08-07T03:38:29.663Z,100.00
2022-08-07T03:39:13.032Z,100.00
2022-08-07T03:40:07.375Z,100.00
2022-08-07T03:40:44.483Z,100.00
2022-08-07T03:41:18.591Z,100.00
2022-08-07T03:42:10.419Z,100.00
2022-08-07T03:42:42.616Z,100.00
2022-08-07T03:43:17.433Z,100.00
2022-08-07T03:43:57.455Z,100.00
2022-08-07T03:44:34.795Z,100.00
2022-08-07T03:45:08.127Z,100.00
2022-08-07T03:45:43.612Z,100.00
2022-08-07T03:46:21.453Z,100.00
2022-08-07T03:47:13.104Z,100.00
2022-08-07T03:47:51.449Z,100.00
2022-08-07T03:48:26.565Z,100.00
2022-08-07T03:49:03.521Z,100.00
2022-08-07T03:49:47.808Z,100.00
2022-08-07T03:50:25.075Z,100.00
2022-08-07T03:51:04.741Z,100.00
2022-08-07T03:51:47.510Z,100.00
2022-08-07T03:52:29.417Z,100.00
2022-08-07T03:53:06.849Z,100.00
2022-08-07T03:54:33.198Z,100.00
2022-08-07T03:54:36.393Z,100.00
2022-08-07T03:55:24.616Z,100.00
2022-08-07T03:56:33.382Z,100.00
2022-08-07T03:57:10.547Z,100.00
2022-08-07T03:58:35.204Z,100.00
2022-08-07T03:59:07.948Z,100.00
2022-08-07T03:59:46.328Z,100.00
2022-08-07T04:00:35.592Z,100.00
2022-08-07T04:01:13.738Z,100.00
2022-08-07T04:01:48.270Z,100.00
2022-08-07T04:02:24.639Z,100.00
2022-08-07T04:02:56.999Z,100.00
2022-08-07T04:03:49.839Z,100.00
2022-08-07T04:04:25.645Z,100.00
2022-08-07T04:05:02.811Z,100.00
2022-08-07T04:05:40.455Z,100.00
2022-08-07T04:06:37.308Z,100.00
2022-08-07T04:07:16.811Z,100.00
2022-08-07T04:07:51.695Z,100.00
2022-08-07T04:08:28.656Z,100.00
2022-08-07T04:09:02.020Z,100.00
2022-08-07T04:09:45.135Z,100.00
2022-08-07T04:10:24.994Z,100.00
2022-08-07T04:12:21.206Z,100.00
2022-08-07T04:12:23.385Z,100.00
2022-08-07T04:12:47.388Z,100.00
2022-08-07T04:13:19.463Z,100.00
2022-08-07T04:14:10.942Z,100.00
2022-08-07T04:14:46.089Z,100.00
2022-08-07T04:15:21.226Z,100.00
2022-08-07T04:15:55.750Z,100.00
2022-08-07T04:16:32.528Z,100.00
2022-08-07T04:17:20.270Z,100.00
2022-08-07T04:18:57.785Z,100.00
2022-08-07T04:18:59.728Z,100.00
2022-08-07T04:19:50.910Z,100.00
2022-08-07T04:20:25.380Z,100.00
2022-08-07T04:20:57.412Z,100.00
2022-08-07T04:21:31.220Z,100.00
2022-08-07T04:22:12.165Z,100.00
2022-08-07T04:22:53.397Z,100.00
2022-08-07T04:23:43.694Z,100.00
2022-08-07T04:24:33.652Z,100.00
2022-08-07T04:25:12.777Z,100.00
2022-08-07T04:25:47.689Z,100.00
2022-08-07T04:26:22.121Z,100.00
2022-08-07T04:26:54.777Z,100.00
2022-08-07T04:27:27.653Z,100.00
2022-08-07T04:28:06.440Z,100.00
2022-08-07T04:28:42.972Z,100.00
2022-08-07T04:29:16.729Z,100.00
2022-08-07T04:29:58.460Z,100.00
2022-08-07T04:30:43.709Z,100.00
2022-08-07T04:31:38.971Z,100.00
2022-08-07T04:32:27.260Z,100.00
2022-08-07T04:33:10.378Z,100.00
2022-08-07T04:33:54.771Z,100.00
2022-08-07T04:34:33.226Z,100.00
2022-08-07T04:35:11.400Z,100.00
2022-08-07T04:35:50.491Z,100.00
2022-08-07T04:36:27.021Z,100.00
2022-08-07T04:37:01.810Z,100.00
2022-08-07T04:38:01.025Z,100.00
2022-08-07T04:38:29.150Z,100.00
2022-08-07T04:39:04.711Z,100.00
2022-08-07T04:39:36.962Z,100.00
2022-08-07T04:40:17.506Z,100.00
2022-08-07T04:40:53.131Z,100.00
2022-08-07T04:41:36.899Z,100.00
2022-08-07T04:42:08.704Z,100.00
2022-08-07T04:42:41.945Z,100.00
2022-08-07T04:43:17.618Z,100.00
2022-08-07T04:44:12.106Z,100.00
2022-08-07T04:44:54.745Z,100.00
2022-08-07T04:46:01.833Z,100.00
2022-08-07T04:47:04.116Z,100.00
2022-08-07T04:48:02.053Z,100.00
2022-08-07T04:48:44.615Z,100.00
2022-08-07T04:49:57.795Z,99.73
2022-08-07T04:50:36.005Z,99.30
2022-08-07T04:51:27.661Z,98.32
2022-08-07T04:52:25.233Z,97.14
2022-08-07T04:53:05.657Z,96.85
2022-08-07T04:54:01.568Z,96.04
2022-08-07T04:55:02.014Z,95.79
2022-08-07T04:58:12.100Z,96.10
2022-08-07T04:58:13.928Z,96.20
2022-08-07T04:58:27.463Z,96.79
2022-08-07T04:59:17.240Z,97.86
2022-08-07T05:00:18.791Z,98.50
2022-08-07T05:01:18.125Z,98.93
2022-08-07T05:02:02.140Z,98.68
2022-08-07T05:02:55.486Z,98.19
2022-08-07T05:04:06.532Z,98.05
2022-08-07T05:04:43.983Z,97.92
2022-08-07T05:05:52.887Z,98.06
2022-08-07T05:06:28.112Z,98.52
2022-08-07T05:07:09.554Z,98.44
2022-08-07T05:07:58.672Z,98.42
2022-08-07T05:09:00.924Z,98.87
2022-08-07T05:09:56.879Z,99.01
2022-08-07T05:10:39.450Z,99.25
2022-08-07T05:11:58.442Z,99.49
2022-08-07T05:12:30.369Z,99.46
2022-08-07T05:14:54.209Z,98.60
2022-08-07T05:14:55.031Z,98.87
2022-08-07T05:15:23.008Z,98.73
2022-08-07T05:15:59.986Z,98.58
2022-08-07T05:16:44.027Z,98.44
2022-08-07T05:17:52.318Z,98.58
2022-08-07T05:18:16.541Z,98.33
2022-08-07T05:18:53.759Z,97.83
2022-08-07T05:19:32.834Z,97.70
2022-08-07T05:20:24.729Z,97.59
2022-08-07T05:21:00.941Z,97.38
2022-08-07T05:22:00.315Z,97.70
2022-08-07T05:22:27.826Z,97.74
2022-08-07T05:23:15.497Z,97.85
2022-08-07T05:24:00.033Z,98.54
2022-08-07T05:24:39.458Z,98.09
2022-08-07T05:25:36.013Z,97.81
2022-08-07T05:26:15.473Z,98.26
2022-08-07T05:26:55.936Z,98.26
2022-08-07T05:28:03.336Z,98.17
2022-08-07T05:28:26.766Z,98.52
2022-08-07T05:29:04.100Z,97.56
2022-08-07T05:29:51.117Z,97.77
2022-08-07T05:30:30.266Z,97.81
2022-08-07T05:31:05.565Z,97.79
2022-08-07T05:31:41.188Z,97.48
2022-08-07T05:32:26.433Z,97.17
2022-08-07T05:32:58.726Z,96.92
2022-08-07T05:33:31.487Z,96.71
2022-08-07T05:34:11.771Z,96.66
2022-08-07T05:34:47.324Z,96.30
2022-08-07T05:35:23.793Z,96.26
2022-08-07T05:36:07.982Z,95.95
2022-08-07T05:36:48.866Z,95.58
2022-08-07T05:37:42.380Z,94.84
2022-08-07T05:39:00.495Z,94.90
2022-08-07T05:39:47.671Z,94.93
2022-08-07T05:40:03.826Z,93.96
2022-08-07T05:40:50.404Z,94.34
2022-08-07T05:41:24.018Z,94.60
2022-08-07T05:42:15.698Z,94.65
2022-08-07T05:43:06.204Z,94.13
2022-08-07T05:44:08.430Z,93.36
2022-08-07T05:44:36.683Z,92.90
2022-08-07T05:45:25.996Z,93.43
2022-08-07T05:46:08.189Z,93.70
2022-08-07T05:46:40.721Z,92.87
2022-08-07T05:47:19.877Z,92.20
2022-08-07T05:48:02.077Z,91.78
2022-08-07T05:48:58.237Z,92.06
2022-08-07T05:49:40.384Z,91.07
2022-08-07T05:50:14.724Z,91.51
2022-08-07T05:50:47.494Z,91.38
2022-08-07T05:51:24.220Z,90.49
2022-08-07T05:51:56.562Z,89.78
2022-08-07T05:52:32.763Z,88.56
2022-08-07T05:53:06.740Z,86.74
2022-08-07T05:54:13.701Z,83.88
2022-08-07T05:54:55.825Z,81.85
2022-08-07T05:56:01.822Z,81.05
2022-08-07T05:56:29.898Z,79.57
2022-08-07T05:57:04.185Z,78.52
2022-08-07T05:57:38.147Z,77.25
2022-08-07T05:58:14.824Z,74.57
2022-08-07T05:58:52.763Z,72.47
2022-08-07T05:59:28.066Z,68.95
2022-08-07T06:00:07.708Z,66.73
2022-08-07T06:00:52.647Z,63.55
2022-08-07T06:01:26.302Z,62.08
2022-08-07T06:01:59.494Z,60.38
2022-08-07T06:02:35.678Z,59.29
2022-08-07T06:03:09.658Z,58.41
2022-08-07T06:03:57.113Z,57.47
2022-08-07T06:04:38.241Z,56.05
2022-08-07T06:05:15.773Z,54.97
2022-08-07T06:05:56.373Z,56.17
2022-08-07T06:06:29.837Z,55.38
2022-08-07T06:07:05.966Z,56.18
2022-08-07T06:08:13.406Z,57.24
2022-08-07T06:08:34.150Z,54.92
2022-08-07T06:09:07.564Z,54.35
2022-08-07T06:10:03.849Z,53.30
2022-08-07T06:10:36.615Z,51.76
2022-08-07T06:11:10.219Z,51.01
2022-08-07T06:11:42.036Z,50.61
2022-08-07T06:12:15.369Z,50.00
2022-08-07T06:12:48.448Z,49.12
2022-08-07T06:14:10.856Z,48.02
2022-08-07T06:14:21.343Z,49.06
2022-08-07T06:15:05.083Z,48.82
2022-08-07T06:15:42.758Z,50.08
2022-08-07T06:16:18.879Z,49.06
2022-08-07T06:16:55.855Z,48.72
2022-08-07T06:17:37.402Z,49.10
2022-08-07T06:18:13.928Z,47.50
2022-08-07T06:18:51.466Z,47.87
2022-08-07T06:19:52.369Z,47.10
2022-08-07T06:20:25.446Z,47.69
2022-08-07T06:22:14.717Z,49.53
2022-08-07T06:22:15.203Z,45.82
2022-08-07T06:23:02.297Z,47.53
2022-08-07T06:24:45.516Z,49.33
2022-08-07T06:24:52.622Z,48.25
2022-08-07T06:25:34.599Z,48.37
2022-08-07T06:26:07.046Z,48.79
2022-08-07T06:26:42.674Z,49.23
2022-08-07T06:27:44.502Z,49.53
2022-08-07T06:28:17.009Z,50.08
2022-08-07T06:29:01.141Z,49.28
2022-08-07T06:29:38.827Z,50.96
2022-08-07T06:30:31.957Z,49.68
2022-08-07T06:31:03.860Z,50.47
2022-08-07T06:31:47.008Z,50.75
2022-08-07T06:32:24.044Z,50.50
2022-08-07T06:33:01.658Z,50.46
2022-08-07T06:33:35.544Z,50.35
2022-08-07T06:34:07.150Z,49.66
2022-08-07T06:34:45.260Z,48.13
2022-08-07T06:35:17.681Z,48.61
2022-08-07T06:36:12.946Z,47.67
2022-08-07T06:36:48.236Z,46.71
2022-08-07T06:37:24.701Z,47.83
2022-08-07T06:38:20.293Z,46.52
2022-08-07T06:38:59.379Z,43.71
2022-08-07T06:40:16.428Z,46.08
2022-08-07T06:40:45.935Z,48.69
2022-08-07T06:42:00.879Z,46.13
2022-08-07T06:42:35.269Z,46.19
2022-08-07T06:43:21.182Z,47.94
2022-08-07T06:44:10.772Z,49.02
2022-08-07T06:44:45.589Z,47.99
2022-08-07T06:45:23.993Z,45.10
2022-08-07T06:46:00.975Z,43.00
2022-08-07T06:46:35.458Z,44.42
2022-08-07T06:47:10.433Z,42.05
2022-08-07T06:47:57.533Z,44.71
2022-08-07T06:48:32.839Z,47.12
2022-08-07T06:49:05.452Z,44.79
2022-08-07T06:49:51.077Z,43.02
2022-08-07T06:50:25.082Z,42.52
2022-08-07T06:50:59.500Z,44.09
2022-08-07T06:51:49.655Z,42.36
2022-08-07T06:52:31.956Z,42.97
2022-08-07T06:53:49.282Z,44.89
2022-08-07T06:55:27.461Z,44.13
2022-08-07T06:55:34.247Z,42.95
2022-08-07T06:56:00.110Z,42.79
2022-08-07T06:56:49.624Z,44.12
2022-08-07T06:57:43.664Z,41.64
2022-08-07T06:58:28.919Z,40.25
2022-08-07T07:00:11.706Z,39.39
2022-08-07T07:00:13.578Z,39.47
2022-08-07T07:00:53.039Z,39.52
2022-08-07T07:01:25.753Z,39.76
2022-08-07T07:02:07.759Z,39.24
2022-08-07T07:02:53.304Z,41.89
2022-08-07T07:03:47.449Z,44.37
2022-08-07T07:04:32.559Z,41.92
2022-08-07T07:05:06.043Z,40.78
2022-08-07T07:06:04.789Z,40.02
2022-08-07T07:06:31.796Z,38.41
2022-08-07T07:07:19.177Z,37.93
2022-08-07T07:08:06.631Z,37.99
2022-08-07T07:08:39.922Z,37.97
2022-08-07T07:09:25.339Z,38.97
2022-08-07T07:10:03.724Z,39.57
2022-08-07T07:10:35.720Z,39.09
2022-08-07T07:11:13.536Z,39.22
2022-08-07T07:12:09.824Z,37.32
2022-08-07T07:12:53.534Z,37.36
2022-08-07T07:13:56.291Z,40.47
2022-08-07T07:14:28.430Z,39.10
2022-08-07T07:15:23.824Z,40.35
2022-08-07T07:16:03.210Z,38.62
2022-08-07T07:16:38.921Z,38.42
2022-08-07T07:17:45.196Z,39.51
2022-08-07T07:18:47.470Z,41.62
2022-08-07T07:19:55.975Z,38.84
2022-08-07T07:20:17.452Z,38.07
2022-08-07T07:20:54.524Z,37.77
2022-08-07T07:22:04.194Z,39.61
2022-08-07T07:22:37.024Z,42.14
2022-08-07T07:24:08.443Z,42.06
2022-08-07T07:24:12.554Z,40.98
2022-08-07T07:24:58.472Z,40.70
2022-08-07T07:26:32.038Z,40.56
2022-08-07T07:26:36.824Z,38.84
2022-08-07T07:27:10.164Z,38.29
2022-08-07T07:27:58.431Z,37.97
2022-08-07T07:29:22.708Z,40.53
2022-08-07T07:29:55.892Z,38.93
2022-08-07T07:30:39.613Z,38.79
2022-08-07T07:31:25.853Z,38.13
2022-08-07T07:32:03.599Z,37.25
2022-08-07T07:32:38.867Z,37.13
2022-08-07T07:33:12.214Z,36.95
2022-08-07T07:33:44.945Z,38.81
2022-08-07T07:34:30.887Z,38.39
2022-08-07T07:35:04.013Z,37.86
2022-08-07T07:35:50.657Z,37.78
2022-08-07T07:36:32.264Z,39.09
2022-08-07T07:37:05.499Z,40.15
2022-08-07T07:38:02.092Z,39.35
2022-08-07T07:38:34.876Z,38.20
2022-08-07T07:39:08.858Z,37.33
2022-08-07T07:39:45.766Z,37.24
2022-08-07T07:40:27.148Z,38.20
2022-08-07T07:41:02.757Z,37.74
2022-08-07T07:42:01.983Z,37.75
2022-08-07T07:42:33.093Z,37.32
2022-08-07T07:43:15.337Z,36.72
2022-08-07T07:44:16.751Z,35.68
2022-08-07T07:44:49.432Z,35.29
2022-08-07T07:46:38.505Z,37.13
2022-08-07T07:46:53.604Z,37.82
2022-08-07T07:47:17.524Z,38.65
2022-08-07T07:47:55.182Z,39.30
2022-08-07T07:48:35.236Z,39.23
2022-08-07T07:50:15.938Z,38.73
2022-08-07T07:50:35.022Z,39.65
2022-08-07T07:50:54.280Z,40.93
2022-08-07T07:51:26.060Z,39.34
2022-08-07T07:52:00.323Z,40.26
2022-08-07T07:52:32.428Z,40.81
2022-08-07T07:53:04.188Z,39.10
2022-08-07T07:53:52.035Z,39.90
2022-08-07T07:54:24.881Z,39.41
2022-08-07T07:54:58.595Z,36.87
2022-08-07T07:55:37.585Z,35.81
2022-08-07T07:56:17.401Z,35.49
2022-08-07T07:57:05.652Z,35.76
2022-08-07T07:57:50.410Z,35.46
2022-08-07T07:58:25.605Z,35.51
2022-08-07T07:59:01.567Z,34.89
2022-08-07T07:59:52.720Z,34.57
2022-08-07T08:00:29.668Z,37.31
2022-08-07T08:02:04.143Z,38.24
2022-08-07T08:02:04.690Z,37.82
2022-08-07T08:03:01.295Z,37.94
2022-08-07T08:04:09.282Z,37.67
2022-08-07T08:04:28.779Z,37.32
2022-08-07T08:05:02.531Z,36.96
2022-08-07T08:05:50.807Z,36.63
2022-08-07T08:06:26.084Z,37.81
2022-08-07T08:07:00.647Z,37.72
2022-08-07T08:07:51.550Z,38.53
2022-08-07T08:08:34.395Z,35.96
2022-08-07T08:09:09.722Z,37.47
2022-08-07T08:09:52.280Z,36.15
2022-08-07T08:10:38.649Z,35.87
2022-08-07T08:11:16.508Z,37.93
2022-08-07T08:12:02.413Z,37.05
2022-08-07T08:12:52.373Z,36.82
2022-08-07T08:13:25.201Z,36.21
2022-08-07T08:14:08.253Z,38.11
2022-08-07T08:14:42.607Z,37.16
2022-08-07T08:15:16.436Z,37.17
2022-08-07T08:15:58.348Z,36.41
2022-08-07T08:16:42.723Z,37.62
2022-08-07T08:17:55.677Z,36.94
2022-08-07T08:18:17.206Z,35.97
2022-08-07T08:18:51.642Z,36.82
2022-08-07T08:20:19.556Z,36.62
2022-08-07T08:20:26.209Z,33.57
2022-08-07T08:21:03.619Z,35.98
2022-08-07T08:22:03.142Z,34.93
2022-08-07T08:22:58.978Z,35.35
2022-08-07T08:23:50.643Z,35.41
2022-08-07T08:24:45.490Z,36.45
2022-08-07T08:25:42.748Z,35.61
2022-08-07T08:26:39.892Z,33.25
2022-08-07T08:27:14.409Z,33.16
2022-08-07T08:27:56.415Z,32.97
2022-08-07T08:28:38.259Z,34.10
2022-08-07T08:29:12.055Z,33.57
2022-08-07T08:29:55.505Z,35.25
2022-08-07T08:30:27.889Z,34.31
2022-08-07T08:31:00.846Z,34.98
2022-08-07T08:32:16.802Z,34.51
2022-08-07T08:32:49.069Z,36.32
2022-08-07T08:33:23.634Z,34.93
2022-08-07T08:33:57.790Z,35.13
2022-08-07T08:34:30.477Z,35.79
2022-08-07T08:35:02.273Z,36.08
2022-08-07T08:35:43.111Z,35.78
2022-08-07T08:36:25.741Z,36.38
2022-08-07T08:37:03.469Z,36.47
2022-08-07T08:38:01.129Z,37.65
2022-08-07T08:38:41.245Z,36.97
2022-08-07T08:39:13.418Z,36.74
2022-08-07T08:39:54.910Z,36.70
2022-08-07T08:40:36.445Z,35.96
2022-08-07T08:41:17.607Z,35.76
2022-08-07T08:42:05.174Z,36.52
2022-08-07T08:42:47.850Z,37.10
2022-08-07T08:43:56.130Z,36.44
2022-08-07T08:44:41.256Z,35.14
2022-08-07T08:45:58.532Z,36.63
2022-08-07T08:46:49.031Z,36.19
2022-08-07T08:47:34.431Z,36.75